Sydney, Canada
Current Conditions -  °F | °C
As of 2:00 AM on Friday 31 Oct 2014 (Local Time) from CYQY Reporting Station
Scattered Clouds Scattered Clouds  
Wind Chill: 30°   Ceiling: Unl
Heat Index: 36°   Visibility: 15mi
Dew Point: 34°   Wind: 7mph
Humidity: 93%   Direction: 240°WSW
Pressure: 29.87"   Gusts: NA
Location:  46.14°N, 60.2°W
Report Text: CYQY 310500Z 24006KT 15SM SCT240 02/01 A2987 RMK CI3 SLP118
Loading
Personal Weather Stations






























Interactive Weather Map
Tropical Storm Tracking
New forecast layout! Learn more

10-Day Weather Forecast

Advertisements
Track Severe Weather on mobile